sensor_id;sensor_type;location;lat;lon;timestamp;temperature;humidity
62339;DHT22;48368;53.406;6.214;2022-10-29T00:00:28;12.60;99.90
62339;DHT22;48368;53.406;6.214;2022-10-29T00:02:53;12.60;99.90
62339;DHT22;48368;53.406;6.214;2022-10-29T00:05:19;12.50;99.90
62339;DHT22;48368;53.406;6.214;2022-10-29T00:07:44;12.40;99.90
62339;DHT22;48368;53.406;6.214;2022-10-29T00:10:10;12.50;99.90
62339;DHT22;48368;53.406;6.214;2022-10-29T00:12:36;12.50;99.90
62339;DHT22;48368;53.406;6.214;2022-10-29T00:15:02;12.50;99.90
62339;DHT22;48368;53.406;6.214;2022-10-29T00:17:28;12.40;99.90
62339;DHT22;48368;53.406;6.214;2022-10-29T00:19:54;12.40;99.90
62339;DHT22;48368;53.406;6.214;2022-10-29T00:22:19;12.40;99.90
62339;DHT22;48368;53.406;6.214;2022-10-29T00:24:45;12.40;99.90
62339;DHT22;48368;53.406;6.214;2022-10-29T00:27:11;12.40;99.90
62339;DHT22;48368;53.406;6.214;2022-10-29T00:29:36;12.40;99.90
62339;DHT22;48368;53.406;6.214;2022-10-29T00:32:02;12.40;99.90
62339;DHT22;48368;53.406;6.214;2022-10-29T00:34:28;12.30;99.90
62339;DHT22;48368;53.406;6.214;2022-10-29T00:36:53;12.30;99.90
62339;DHT22;48368;53.406;6.214;2022-10-29T00:39:19;12.30;99.90
62339;DHT22;48368;53.406;6.214;2022-10-29T00:41:45;12.20;99.90
62339;DHT22;48368;53.406;6.214;2022-10-29T00:46:44;12.10;99.90
62339;DHT22;48368;53.406;6.214;2022-10-29T00:49:12;12.00;99.90
62339;DHT22;48368;53.406;6.214;2022-10-29T00:51:39;12.00;99.90
62339;DHT22;48368;53.406;6.214;2022-10-29T00:54:07;12.00;99.90
62339;DHT22;48368;53.406;6.214;2022-10-29T00:56:56;12.00;99.90
62339;DHT22;48368;53.406;6.214;2022-10-29T00:59:23;12.00;99.90
62339;DHT22;48368;53.406;6.214;2022-10-29T01:01:49;12.20;99.90
62339;DHT22;48368;53.406;6.214;2022-10-29T01:04:16;12.10;99.90
62339;DHT22;48368;53.406;6.214;2022-10-29T01:06:43;12.20;99.90
62339;DHT22;48368;53.406;6.214;2022-10-29T01:09:09;12.20;99.90
62339;DHT22;48368;53.406;6.214;2022-10-29T01:11:50;12.10;99.90
62339;DHT22;48368;53.406;6.214;2022-10-29T01:29:09;12.20;99.90
62339;DHT22;48368;53.406;6.214;2022-10-29T01:31:47;12.20;99.90
62339;DHT22;48368;53.406;6.214;2022-10-29T01:34:33;12.30;99.90
62339;DHT22;48368;53.406;6.214;2022-10-29T01:46:11;12.20;99.90
62339;DHT22;48368;53.406;6.214;2022-10-29T01:48:12;12.30;99.90
62339;DHT22;48368;53.406;6.214;2022-10-29T01:50:39;12.30;99.90
62339;DHT22;48368;53.406;6.214;2022-10-29T01:53:07;12.30;99.90
62339;DHT22;48368;53.406;6.214;2022-10-29T01:55:33;12.30;99.90
62339;DHT22;48368;53.406;6.214;2022-10-29T01:58:04;12.40;99.90
62339;DHT22;48368;53.406;6.214;2022-10-29T02:01:02;12.40;99.90
62339;DHT22;48368;53.406;6.214;2022-10-29T02:09:00;12.40;99.90
62339;DHT22;48368;53.406;6.214;2022-10-29T02:11:46;12.40;99.90
62339;DHT22;48368;53.406;6.214;2022-10-29T02:14:32;12.30;99.90
62339;DHT22;48368;53.406;6.214;2022-10-29T02:17:00;12.30;99.90
62339;DHT22;48368;53.406;6.214;2022-10-29T02:19:34;12.30;99.90
62339;DHT22;48368;53.406;6.214;2022-10-29T02:22:00;12.20;99.90
62339;DHT22;48368;53.406;6.214;2022-10-29T02:24:26;12.20;99.90
62339;DHT22;48368;53.406;6.214;2022-10-29T02:26:52;12.10;99.90
62339;DHT22;48368;53.406;6.214;2022-10-29T02:29:17;12.10;99.90
62339;DHT22;48368;53.406;6.214;2022-10-29T02:31:43;12.20;99.90
62339;DHT22;48368;53.406;6.214;2022-10-29T02:34:09;12.10;99.90
62339;DHT22;48368;53.406;6.214;2022-10-29T02:36:34;12.10;99.90
62339;DHT22;48368;53.406;6.214;2022-10-29T02:39:00;12.10;99.90
62339;DHT22;48368;53.406;6.214;2022-10-29T02:41:26;12.10;99.90
62339;DHT22;48368;53.406;6.214;2022-10-29T02:43:52;12.10;99.90
62339;DHT22;48368;53.406;6.214;2022-10-29T02:46:19;12.10;99.90
62339;DHT22;48368;53.406;6.214;2022-10-29T02:48:46;12.10;99.90
62339;DHT22;48368;53.406;6.214;2022-10-29T02:51:11;12.10;99.90
62339;DHT22;48368;53.406;6.214;2022-10-29T02:53:37;12.10;99.90
62339;DHT22;48368;53.406;6.214;2022-10-29T02:56:04;12.10;99.90
62339;DHT22;48368;53.406;6.214;2022-10-29T02:58:29;12.00;99.90
62339;DHT22;48368;53.406;6.214;2022-10-29T03:00:55;12.00;99.90
62339;DHT22;48368;53.406;6.214;2022-10-29T03:03:21;12.10;99.90
62339;DHT22;48368;53.406;6.214;2022-10-29T03:05:46;12.00;99.90
62339;DHT22;48368;53.406;6.214;2022-10-29T03:08:12;12.00;99.90
62339;DHT22;48368;53.406;6.214;2022-10-29T03:10:38;12.00;99.90
62339;DHT22;48368;53.406;6.214;2022-10-29T03:13:03;12.00;99.90
62339;DHT22;48368;53.406;6.214;2022-10-29T03:15:29;12.00;99.90
62339;DHT22;48368;53.406;6.214;2022-10-29T03:17:54;12.00;99.90
62339;DHT22;48368;53.406;6.214;2022-10-29T03:20:20;11.90;99.90
62339;DHT22;48368;53.406;6.214;2022-10-29T03:22:46;11.90;99.90
62339;DHT22;48368;53.406;6.214;2022-10-29T03:25:11;11.90;99.90
62339;DHT22;48368;53.406;6.214;2022-10-29T03:27:41;12.00;99.90
62339;DHT22;48368;53.406;6.214;2022-10-29T03:30:08;11.90;99.90
62339;DHT22;48368;53.406;6.214;2022-10-29T03:32:38;11.90;99.90
62339;DHT22;48368;53.406;6.214;2022-10-29T03:35:03;12.00;99.90
62339;DHT22;48368;53.406;6.214;2022-10-29T03:37:29;12.00;99.90
62339;DHT22;48368;53.406;6.214;2022-10-29T03:39:55;11.90;99.90
62339;DHT22;48368;53.406;6.214;2022-10-29T03:42:20;11.90;99.90
62339;DHT22;48368;53.406;6.214;2022-10-29T03:44:46;11.90;99.90
62339;DHT22;48368;53.406;6.214;2022-10-29T03:47:11;11.90;99.90
62339;DHT22;48368;53.406;6.214;2022-10-29T03:49:37;11.90;99.90
62339;DHT22;48368;53.406;6.214;2022-10-29T03:52:03;11.90;99.90
62339;DHT22;48368;53.406;6.214;2022-10-29T03:54:28;11.90;99.90
62339;DHT22;48368;53.406;6.214;2022-10-29T03:56:54;11.90;99.90
62339;DHT22;48368;53.406;6.214;2022-10-29T03:59:20;12.00;99.90
62339;DHT22;48368;53.406;6.214;2022-10-29T04:01:45;11.90;99.90
62339;DHT22;48368;53.406;6.214;2022-10-29T04:04:11;11.90;99.90
62339;DHT22;48368;53.406;6.214;2022-10-29T04:06:36;11.90;99.90
62339;DHT22;48368;53.406;6.214;2022-10-29T04:09:02;11.90;99.90
62339;DHT22;48368;53.406;6.214;2022-10-29T04:11:28;11.90;99.90
62339;DHT22;48368;53.406;6.214;2022-10-29T04:13:53;11.90;99.90
62339;DHT22;48368;53.406;6.214;2022-10-29T04:16:19;11.90;99.90
62339;DHT22;48368;53.406;6.214;2022-10-29T04:18:48;12.00;99.90
62339;DHT22;48368;53.406;6.214;2022-10-29T04:21:15;11.90;99.90
62339;DHT22;48368;53.406;6.214;2022-10-29T04:23:41;11.90;99.90
62339;DHT22;48368;53.406;6.214;2022-10-29T04:26:06;11.90;99.90
62339;DHT22;48368;53.406;6.214;2022-10-29T04:28:32;11.90;99.90
62339;DHT22;48368;53.406;6.214;2022-10-29T04:31:03;11.90;99.90
62339;DHT22;48368;53.406;6.214;2022-10-29T04:33:29;11.90;99.90
62339;DHT22;48368;53.406;6.214;2022-10-29T04:35:54;11.90;99.90
62339;DHT22;48368;53.406;6.214;2022-10-29T04:38:20;12.00;99.90
62339;DHT22;48368;53.406;6.214;2022-10-29T04:40:46;11.90;99.90
62339;DHT22;48368;53.406;6.214;2022-10-29T04:43:11;11.90;99.90
62339;DHT22;48368;53.406;6.214;2022-10-29T04:45:37;11.90;99.90
62339;DHT22;48368;53.406;6.214;2022-10-29T04:48:04;11.90;99.90
62339;DHT22;48368;53.406;6.214;2022-10-29T04:50:31;11.80;99.90
62339;DHT22;48368;53.406;6.214;2022-10-29T04:53:01;11.90;99.90
62339;DHT22;48368;53.406;6.214;2022-10-29T04:55:28;11.80;99.90
62339;DHT22;48368;53.406;6.214;2022-10-29T04:57:54;11.80;99.90
62339;DHT22;48368;53.406;6.214;2022-10-29T05:00:21;11.90;99.90
62339;DHT22;48368;53.406;6.214;2022-10-29T05:02:47;11.80;99.90
62339;DHT22;48368;53.406;6.214;2022-10-29T05:05:15;11.80;99.90
62339;DHT22;48368;53.406;6.214;2022-10-29T05:07:40;11.80;99.90
62339;DHT22;48368;53.406;6.214;2022-10-29T05:10:06;11.80;99.90
62339;DHT22;48368;53.406;6.214;2022-10-29T05:12:32;11.80;99.90
62339;DHT22;48368;53.406;6.214;2022-10-29T05:14:57;11.80;99.90
62339;DHT22;48368;53.406;6.214;2022-10-29T05:17:23;11.70;99.90
62339;DHT22;48368;53.406;6.214;2022-10-29T05:19:48;11.70;99.90
62339;DHT22;48368;53.406;6.214;2022-10-29T05:22:14;11.70;99.90
62339;DHT22;48368;53.406;6.214;2022-10-29T05:24:40;11.70;99.90
62339;DHT22;48368;53.406;6.214;2022-10-29T05:27:06;11.70;99.90
62339;DHT22;48368;53.406;6.214;2022-10-29T05:29:31;11.70;99.90
62339;DHT22;48368;53.406;6.214;2022-10-29T05:31:57;11.70;99.90
62339;DHT22;48368;53.406;6.214;2022-10-29T05:34:23;11.60;99.90
62339;DHT22;48368;53.406;6.214;2022-10-29T05:36:48;11.60;99.90
62339;DHT22;48368;53.406;6.214;2022-10-29T05:39:14;11.60;99.90
62339;DHT22;48368;53.406;6.214;2022-10-29T05:41:40;11.70;99.90
62339;DHT22;48368;53.406;6.214;2022-10-29T05:44:05;11.60;99.90
62339;DHT22;48368;53.406;6.214;2022-10-29T05:46:31;11.60;99.90
62339;DHT22;48368;53.406;6.214;2022-10-29T05:48:56;11.70;99.90
62339;DHT22;48368;53.406;6.214;2022-10-29T05:51:22;11.70;99.90
62339;DHT22;48368;53.406;6.214;2022-10-29T05:53:48;11.70;99.90
62339;DHT22;48368;53.406;6.214;2022-10-29T05:56:14;11.70;99.90
62339;DHT22;48368;53.406;6.214;2022-10-29T05:58:40;11.70;99.90
62339;DHT22;48368;53.406;6.214;2022-10-29T06:01:07;11.80;99.90
62339;DHT22;48368;53.406;6.214;2022-10-29T06:03:33;11.70;99.90
62339;DHT22;48368;53.406;6.214;2022-10-29T06:05:59;11.80;99.90
62339;DHT22;48368;53.406;6.214;2022-10-29T06:08:24;11.80;99.90
62339;DHT22;48368;53.406;6.214;2022-10-29T06:10:50;11.90;99.90
62339;DHT22;48368;53.406;6.214;2022-10-29T06:13:18;11.80;99.90
62339;DHT22;48368;53.406;6.214;2022-10-29T06:15:44;11.90;99.90
62339;DHT22;48368;53.406;6.214;2022-10-29T06:18:11;11.80;99.90
62339;DHT22;48368;53.406;6.214;2022-10-29T06:20:37;11.90;99.90
62339;DHT22;48368;53.406;6.214;2022-10-29T06:23:03;11.90;99.90
62339;DHT22;48368;53.406;6.214;2022-10-29T06:25:29;11.90;99.90
62339;DHT22;48368;53.406;6.214;2022-10-29T06:27:59;11.90;99.90
62339;DHT22;48368;53.406;6.214;2022-10-29T06:30:25;11.90;99.90
62339;DHT22;48368;53.406;6.214;2022-10-29T06:32:51;11.90;99.90
62339;DHT22;48368;53.406;6.214;2022-10-29T06:35:16;11.90;99.90
62339;DHT22;48368;53.406;6.214;2022-10-29T06:37:42;11.90;99.90
62339;DHT22;48368;53.406;6.214;2022-10-29T06:40:08;11.90;99.90
62339;DHT22;48368;53.406;6.214;2022-10-29T06:42:34;11.90;99.90
62339;DHT22;48368;53.406;6.214;2022-10-29T06:44:59;12.00;99.90
62339;DHT22;48368;53.406;6.214;2022-10-29T06:47:25;12.00;99.90
62339;DHT22;48368;53.406;6.214;2022-10-29T06:49:50;12.10;99.90
62339;DHT22;48368;53.406;6.214;2022-10-29T06:52:16;12.00;99.90
62339;DHT22;48368;53.406;6.214;2022-10-29T06:54:41;12.10;99.90
62339;DHT22;48368;53.406;6.214;2022-10-29T06:57:07;12.10;99.90
62339;DHT22;48368;53.406;6.214;2022-10-29T06:59:33;12.00;99.90
62339;DHT22;48368;53.406;6.214;2022-10-29T07:01:58;12.10;99.90
62339;DHT22;48368;53.406;6.214;2022-10-29T07:04:24;12.00;99.90
62339;DHT22;48368;53.406;6.214;2022-10-29T07:06:50;12.00;99.90
62339;DHT22;48368;53.406;6.214;2022-10-29T07:09:15;12.20;99.90
62339;DHT22;48368;53.406;6.214;2022-10-29T07:11:41;12.10;99.90
62339;DHT22;48368;53.406;6.214;2022-10-29T07:14:06;12.00;99.90
62339;DHT22;48368;53.406;6.214;2022-10-29T07:16:34;12.00;99.90
62339;DHT22;48368;53.406;6.214;2022-10-29T07:19:01;12.10;99.90
62339;DHT22;48368;53.406;6.214;2022-10-29T07:21:27;12.10;99.90
62339;DHT22;48368;53.406;6.214;2022-10-29T07:23:53;12.10;99.90
62339;DHT22;48368;53.406;6.214;2022-10-29T07:26:18;12.10;99.90
62339;DHT22;48368;53.406;6.214;2022-10-29T07:28:44;12.20;99.90
62339;DHT22;48368;53.406;6.214;2022-10-29T07:31:10;12.20;99.90
62339;DHT22;48368;53.406;6.214;2022-10-29T07:33:35;12.20;99.90
62339;DHT22;48368;53.406;6.214;2022-10-29T07:36:01;12.20;99.90
62339;DHT22;48368;53.406;6.214;2022-10-29T07:38:26;12.20;99.90
62339;DHT22;48368;53.406;6.214;2022-10-29T07:40:53;12.20;99.90
62339;DHT22;48368;53.406;6.214;2022-10-29T07:43:19;12.20;99.90
62339;DHT22;48368;53.406;6.214;2022-10-29T07:45:47;12.20;99.90
62339;DHT22;48368;53.406;6.214;2022-10-29T07:48:17;12.30;99.90
62339;DHT22;48368;53.406;6.214;2022-10-29T07:50:43;12.30;99.90
62339;DHT22;48368;53.406;6.214;2022-10-29T07:53:09;12.30;99.90
62339;DHT22;48368;53.406;6.214;2022-10-29T07:55:35;12.40;99.90
62339;DHT22;48368;53.406;6.214;2022-10-29T07:58:03;12.30;99.90
62339;DHT22;48368;53.406;6.214;2022-10-29T08:00:31;12.40;99.90
62339;DHT22;48368;53.406;6.214;2022-10-29T08:02:57;12.40;99.90
62339;DHT22;48368;53.406;6.214;2022-10-29T08:05:24;12.40;99.90
62339;DHT22;48368;53.406;6.214;2022-10-29T08:07:52;12.50;99.90
62339;DHT22;48368;53.406;6.214;2022-10-29T08:10:18;12.40;99.90
62339;DHT22;48368;53.406;6.214;2022-10-29T08:12:52;12.50;99.90
62339;DHT22;48368;53.406;6.214;2022-10-29T08:15:18;12.50;99.90
62339;DHT22;48368;53.406;6.214;2022-10-29T08:17:44;12.50;99.90
62339;DHT22;48368;53.406;6.214;2022-10-29T08:20:10;12.50;99.90
62339;DHT22;48368;53.406;6.214;2022-10-29T08:22:36;12.60;99.90
62339;DHT22;48368;53.406;6.214;2022-10-29T08:25:02;12.50;99.90
62339;DHT22;48368;53.406;6.214;2022-10-29T08:27:27;12.60;99.90
62339;DHT22;48368;53.406;6.214;2022-10-29T08:29:53;12.60;99.90
62339;DHT22;48368;53.406;6.214;2022-10-29T08:32:18;12.60;99.90
62339;DHT22;48368;53.406;6.214;2022-10-29T08:34:44;12.70;99.90
62339;DHT22;48368;53.406;6.214;2022-10-29T08:37:09;12.70;99.90
62339;DHT22;48368;53.406;6.214;2022-10-29T08:39:35;12.80;99.90
62339;DHT22;48368;53.406;6.214;2022-10-29T08:42:35;12.80;99.90
62339;DHT22;48368;53.406;6.214;2022-10-29T08:45:20;12.90;99.90
62339;DHT22;48368;53.406;6.214;2022-10-29T08:50:32;13.00;99.90
62339;DHT22;48368;53.406;6.214;2022-10-29T08:52:59;13.00;99.90
62339;DHT22;48368;53.406;6.214;2022-10-29T08:55:33;13.10;99.90
62339;DHT22;48368;53.406;6.214;2022-10-29T09:00:48;13.10;99.90
62339;DHT22;48368;53.406;6.214;2022-10-29T09:03:16;13.20;99.90
62339;DHT22;48368;53.406;6.214;2022-10-29T09:05:54;13.20;99.90
62339;DHT22;48368;53.406;6.214;2022-10-29T09:14:30;13.30;99.90
62339;DHT22;48368;53.406;6.214;2022-10-29T09:20:26;13.20;99.90
62339;DHT22;48368;53.406;6.214;2022-10-29T09:22:52;13.30;99.90
62339;DHT22;48368;53.406;6.214;2022-10-29T09:25:28;13.40;99.90
62339;DHT22;48368;53.406;6.214;2022-10-29T09:28:24;13.40;99.90
62339;DHT22;48368;53.406;6.214;2022-10-29T09:33:28;13.40;99.90
62339;DHT22;48368;53.406;6.214;2022-10-29T09:35:57;13.40;99.90
62339;DHT22;48368;53.406;6.214;2022-10-29T09:38:28;13.40;99.90
62339;DHT22;48368;53.406;6.214;2022-10-29T09:41:00;13.50;99.90
62339;DHT22;48368;53.406;6.214;2022-10-29T09:52:04;13.60;99.90
62339;DHT22;48368;53.406;6.214;2022-10-29T09:54:31;13.60;99.90
62339;DHT22;48368;53.406;6.214;2022-10-29T09:56:59;13.60;99.90
62339;DHT22;48368;53.406;6.214;2022-10-29T09:59:36;13.60;99.90
62339;DHT22;48368;53.406;6.214;2022-10-29T10:02:19;13.70;99.90
62339;DHT22;48368;53.406;6.214;2022-10-29T10:04:48;13.70;99.90
62339;DHT22;48368;53.406;6.214;2022-10-29T10:07:17;13.70;99.90
62339;DHT22;48368;53.406;6.214;2022-10-29T10:09:50;13.80;99.90
62339;DHT22;48368;53.406;6.214;2022-10-29T10:12:18;13.80;99.90
62339;DHT22;48368;53.406;6.214;2022-10-29T10:14:45;13.90;99.90
62339;DHT22;48368;53.406;6.214;2022-10-29T10:17:11;14.00;99.90
62339;DHT22;48368;53.406;6.214;2022-10-29T10:19:43;13.90;99.90
62339;DHT22;48368;53.406;6.214;2022-10-29T10:22:17;14.00;99.90
62339;DHT22;48368;53.406;6.214;2022-10-29T10:24:43;14.10;99.90
62339;DHT22;48368;53.406;6.214;2022-10-29T10:27:28;14.10;99.90
62339;DHT22;48368;53.406;6.214;2022-10-29T10:32:29;14.20;99.90
62339;DHT22;48368;53.406;6.214;2022-10-29T10:34:55;14.40;99.90
62339;DHT22;48368;53.406;6.214;2022-10-29T10:37:21;14.40;99.90
62339;DHT22;48368;53.406;6.214;2022-10-29T10:39:59;14.50;99.90
62339;DHT22;48368;53.406;6.214;2022-10-29T10:42:28;14.60;99.90
62339;DHT22;48368;53.406;6.214;2022-10-29T10:45:00;14.70;99.90
62339;DHT22;48368;53.406;6.214;2022-10-29T10:47:32;14.70;99.90
62339;DHT22;48368;53.406;6.214;2022-10-29T10:52:45;14.80;99.90
62339;DHT22;48368;53.406;6.214;2022-10-29T10:55:21;14.80;99.90
62339;DHT22;48368;53.406;6.214;2022-10-29T10:58:11;14.80;99.90
62339;DHT22;48368;53.406;6.214;2022-10-29T11:01:01;14.70;99.90
62339;DHT22;48368;53.406;6.214;2022-10-29T11:03:49;14.70;99.90
62339;DHT22;48368;53.406;6.214;2022-10-29T11:09:11;14.80;99.90
62339;DHT22;48368;53.406;6.214;2022-10-29T11:11:48;14.80;99.90
62339;DHT22;48368;53.406;6.214;2022-10-29T11:14:24;14.90;99.90
62339;DHT22;48368;53.406;6.214;2022-10-29T11:16:54;14.90;99.90
62339;DHT22;48368;53.406;6.214;2022-10-29T11:21:55;15.00;99.90
62339;DHT22;48368;53.406;6.214;2022-10-29T11:24:43;15.00;99.90
62339;DHT22;48368;53.406;6.214;2022-10-29T11:27:44;15.00;99.90
62339;DHT22;48368;53.406;6.214;2022-10-29T11:30:16;15.00;99.90
62339;DHT22;48368;53.406;6.214;2022-10-29T11:35:38;15.20;99.90
62339;DHT22;48368;53.406;6.214;2022-10-29T11:38:31;15.30;99.90
62339;DHT22;48368;53.406;6.214;2022-10-29T11:43:29;15.40;99.90
62339;DHT22;48368;53.406;6.214;2022-10-29T11:46:14;15.20;99.90
62339;DHT22;48368;53.406;6.214;2022-10-29T11:51:50;15.30;99.90
62339;DHT22;48368;53.406;6.214;2022-10-29T12:00:18;15.60;99.90
62339;DHT22;48368;53.406;6.214;2022-10-29T12:16:38;16.00;99.90
62339;DHT22;48368;53.406;6.214;2022-10-29T12:19:34;16.20;99.90
62339;DHT22;48368;53.406;6.214;2022-10-29T12:30:17;16.30;99.90
62339;DHT22;48368;53.406;6.214;2022-10-29T12:35:39;16.40;99.90
62339;DHT22;48368;53.406;6.214;2022-10-29T12:41:11;16.60;99.90
62339;DHT22;48368;53.406;6.214;2022-10-29T12:43:40;16.80;99.90
62339;DHT22;48368;53.406;6.214;2022-10-29T12:46:42;16.90;99.90
62339;DHT22;48368;53.406;6.214;2022-10-29T12:49:15;17.20;99.90
62339;DHT22;48368;53.406;6.214;2022-10-29T12:51:50;17.30;99.90
62339;DHT22;48368;53.406;6.214;2022-10-29T12:54:38;17.30;99.90
62339;DHT22;48368;53.406;6.214;2022-10-29T12:57:19;17.20;99.90
62339;DHT22;48368;53.406;6.214;2022-10-29T12:59:47;17.20;99.90
62339;DHT22;48368;53.406;6.214;2022-10-29T13:02:26;17.10;99.90
62339;DHT22;48368;53.406;6.214;2022-10-29T13:07:35;17.00;99.90
62339;DHT22;48368;53.406;6.214;2022-10-29T13:16:02;17.10;99.90
62339;DHT22;48368;53.406;6.214;2022-10-29T13:18:46;17.10;99.90
62339;DHT22;48368;53.406;6.214;2022-10-29T13:22:30;17.10;99.90
62339;DHT22;48368;53.406;6.214;2022-10-29T13:24:23;17.10;99.90
62339;DHT22;48368;53.406;6.214;2022-10-29T13:27:02;17.00;99.90
62339;DHT22;48368;53.406;6.214;2022-10-29T13:29:42;17.00;99.90
62339;DHT22;48368;53.406;6.214;2022-10-29T13:32:35;17.00;99.90
62339;DHT22;48368;53.406;6.214;2022-10-29T13:35:03;17.00;99.90
62339;DHT22;48368;53.406;6.214;2022-10-29T13:43:07;17.20;99.90
62339;DHT22;48368;53.406;6.214;2022-10-29T13:45:36;17.10;99.90
62339;DHT22;48368;53.406;6.214;2022-10-29T13:48:25;17.20;99.90
62339;DHT22;48368;53.406;6.214;2022-10-29T13:50:54;17.20;99.90
62339;DHT22;48368;53.406;6.214;2022-10-29T13:53:29;17.30;99.90
62339;DHT22;48368;53.406;6.214;2022-10-29T13:55:58;17.30;99.90
62339;DHT22;48368;53.406;6.214;2022-10-29T13:58:31;17.30;99.90
62339;DHT22;48368;53.406;6.214;2022-10-29T14:01:01;17.50;99.90
62339;DHT22;48368;53.406;6.214;2022-10-29T14:03:38;17.50;99.90
62339;DHT22;48368;53.406;6.214;2022-10-29T14:06:09;17.60;99.90
62339;DHT22;48368;53.406;6.214;2022-10-29T14:08:40;17.50;99.90
62339;DHT22;48368;53.406;6.214;2022-10-29T14:11:13;17.50;99.90
62339;DHT22;48368;53.406;6.214;2022-10-29T14:13:50;17.60;99.90
62339;DHT22;48368;53.406;6.214;2022-10-29T14:16:17;17.60;99.90
62339;DHT22;48368;53.406;6.214;2022-10-29T14:18:49;17.60;99.90
62339;DHT22;48368;53.406;6.214;2022-10-29T14:24:01;17.70;99.90
62339;DHT22;48368;53.406;6.214;2022-10-29T14:26:29;17.50;99.90
62339;DHT22;48368;53.406;6.214;2022-10-29T14:28:55;17.60;99.90
62339;DHT22;48368;53.406;6.214;2022-10-29T14:31:23;17.50;99.90
62339;DHT22;48368;53.406;6.214;2022-10-29T14:33:59;17.40;99.90
62339;DHT22;48368;53.406;6.214;2022-10-29T14:36:44;17.50;99.90
62339;DHT22;48368;53.406;6.214;2022-10-29T14:41:45;17.40;99.90
62339;DHT22;48368;53.406;6.214;2022-10-29T14:44:26;17.40;99.90
62339;DHT22;48368;53.406;6.214;2022-10-29T14:49:29;17.40;99.90
62339;DHT22;48368;53.406;6.214;2022-10-29T14:52:02;17.40;99.90
62339;DHT22;48368;53.406;6.214;2022-10-29T14:54:34;17.30;99.90
62339;DHT22;48368;53.406;6.214;2022-10-29T14:57:03;17.30;99.90
62339;DHT22;48368;53.406;6.214;2022-10-29T14:59:32;17.40;99.90
62339;DHT22;48368;53.406;6.214;2022-10-29T15:02:00;17.30;99.90
62339;DHT22;48368;53.406;6.214;2022-10-29T15:04:28;17.40;99.90
62339;DHT22;48368;53.406;6.214;2022-10-29T15:09:39;17.30;99.90
62339;DHT22;48368;53.406;6.214;2022-10-29T15:12:21;17.40;99.90
62339;DHT22;48368;53.406;6.214;2022-10-29T15:14:52;17.50;99.90
62339;DHT22;48368;53.406;6.214;2022-10-29T15:17:27;17.30;99.90
62339;DHT22;48368;53.406;6.214;2022-10-29T15:19:59;17.50;99.90
62339;DHT22;48368;53.406;6.214;2022-10-29T15:22:35;17.30;99.90
62339;DHT22;48368;53.406;6.214;2022-10-29T15:25:05;17.30;99.90
62339;DHT22;48368;53.406;6.214;2022-10-29T15:27:34;17.30;99.90
62339;DHT22;48368;53.406;6.214;2022-10-29T15:30:00;17.40;99.90
62339;DHT22;48368;53.406;6.214;2022-10-29T15:32:26;17.30;99.90
62339;DHT22;48368;53.406;6.214;2022-10-29T15:34:54;17.40;99.90
62339;DHT22;48368;53.406;6.214;2022-10-29T15:37:38;17.30;99.90
62339;DHT22;48368;53.406;6.214;2022-10-29T15:40:09;17.20;99.90
62339;DHT22;48368;53.406;6.214;2022-10-29T15:42:36;17.10;99.90
62339;DHT22;48368;53.406;6.214;2022-10-29T15:47:31;17.00;99.90
62339;DHT22;48368;53.406;6.214;2022-10-29T15:49:57;17.10;99.90
62339;DHT22;48368;53.406;6.214;2022-10-29T15:52:32;17.00;99.90
62339;DHT22;48368;53.406;6.214;2022-10-29T15:54:59;16.90;99.90
62339;DHT22;48368;53.406;6.214;2022-10-29T15:57:26;17.00;99.90
62339;DHT22;48368;53.406;6.214;2022-10-29T15:59:52;17.00;99.90
62339;DHT22;48368;53.406;6.214;2022-10-29T16:02:23;16.90;99.90
62339;DHT22;48368;53.406;6.214;2022-10-29T16:04:49;16.90;99.90
62339;DHT22;48368;53.406;6.214;2022-10-29T16:07:15;16.90;99.90
62339;DHT22;48368;53.406;6.214;2022-10-29T16:09:51;16.80;99.90
62339;DHT22;48368;53.406;6.214;2022-10-29T16:12:18;16.70;99.90
62339;DHT22;48368;53.406;6.214;2022-10-29T16:14:44;16.70;99.90
62339;DHT22;48368;53.406;6.214;2022-10-29T16:17:15;16.70;99.90
62339;DHT22;48368;53.406;6.214;2022-10-29T16:19:41;16.60;99.90
62339;DHT22;48368;53.406;6.214;2022-10-29T16:22:27;16.60;99.90
62339;DHT22;48368;53.406;6.214;2022-10-29T16:24:54;16.60;99.90
62339;DHT22;48368;53.406;6.214;2022-10-29T16:27:20;16.50;99.90
62339;DHT22;48368;53.406;6.214;2022-10-29T16:29:46;16.50;99.90
62339;DHT22;48368;53.406;6.214;2022-10-29T16:32:15;16.50;99.90
62339;DHT22;48368;53.406;6.214;2022-10-29T16:34:42;16.60;99.90
62339;DHT22;48368;53.406;6.214;2022-10-29T16:37:13;16.40;99.90
62339;DHT22;48368;53.406;6.214;2022-10-29T16:39:39;16.50;99.90
62339;DHT22;48368;53.406;6.214;2022-10-29T16:42:05;16.50;99.90
62339;DHT22;48368;53.406;6.214;2022-10-29T16:44:30;16.50;99.90
62339;DHT22;48368;53.406;6.214;2022-10-29T16:46:56;16.50;99.90
62339;DHT22;48368;53.406;6.214;2022-10-29T16:49:22;16.50;99.90
62339;DHT22;48368;53.406;6.214;2022-10-29T16:51:47;16.50;99.90
62339;DHT22;48368;53.406;6.214;2022-10-29T16:54:14;16.50;99.90
62339;DHT22;48368;53.406;6.214;2022-10-29T16:56:39;16.40;99.90
62339;DHT22;48368;53.406;6.214;2022-10-29T16:59:05;16.40;99.90
62339;DHT22;48368;53.406;6.214;2022-10-29T17:01:30;16.40;99.90
62339;DHT22;48368;53.406;6.214;2022-10-29T17:03:56;16.30;99.90
62339;DHT22;48368;53.406;6.214;2022-10-29T17:06:22;16.40;99.90
62339;DHT22;48368;53.406;6.214;2022-10-29T17:08:47;16.40;99.90
62339;DHT22;48368;53.406;6.214;2022-10-29T17:11:13;16.40;99.90
62339;DHT22;48368;53.406;6.214;2022-10-29T17:13:38;16.30;99.90
62339;DHT22;48368;53.406;6.214;2022-10-29T17:16:06;16.40;99.90
62339;DHT22;48368;53.406;6.214;2022-10-29T17:18:32;16.20;99.90
62339;DHT22;48368;53.406;6.214;2022-10-29T17:20:58;16.30;99.90
62339;DHT22;48368;53.406;6.214;2022-10-29T17:23:24;16.20;99.90
62339;DHT22;48368;53.406;6.214;2022-10-29T17:25:55;16.30;99.90
62339;DHT22;48368;53.406;6.214;2022-10-29T17:28:21;16.30;99.90
62339;DHT22;48368;53.406;6.214;2022-10-29T17:30:47;16.10;99.90
62339;DHT22;48368;53.406;6.214;2022-10-29T17:33:13;16.10;99.90
62339;DHT22;48368;53.406;6.214;2022-10-29T17:35:39;16.20;99.90
62339;DHT22;48368;53.406;6.214;2022-10-29T17:38:05;16.30;99.90
62339;DHT22;48368;53.406;6.214;2022-10-29T17:40:30;16.20;99.90
62339;DHT22;48368;53.406;6.214;2022-10-29T17:42:56;16.10;99.90
62339;DHT22;48368;53.406;6.214;2022-10-29T17:45:22;16.10;99.90
62339;DHT22;48368;53.406;6.214;2022-10-29T17:47:55;16.10;99.90
62339;DHT22;48368;53.406;6.214;2022-10-29T17:50:20;16.10;99.90
62339;DHT22;48368;53.406;6.214;2022-10-29T17:52:46;16.00;99.90
62339;DHT22;48368;53.406;6.214;2022-10-29T17:55:11;16.10;99.90
62339;DHT22;48368;53.406;6.214;2022-10-29T17:57:37;16.00;99.90
62339;DHT22;48368;53.406;6.214;2022-10-29T18:02:58;16.00;99.90